Flight Track Log - Related Links

Times and Time Zones

All times are in EDT time to prevent confusion due to time zone crossing. See the N673DW flight status page for this flight to view local times or setup timezone preferences in your user account.

Time Position Orientation Groundspeed Altitude Reporting Facility
EDT Latitude Longitude Course Direction KTS MPH feet Rate Location/Type
Sun 05:17:25 PM 30.6264 -81.4925 197° South 125 144 1,100  Level Jacksonville Center
Sun 05:18:01 PM 30.6056 -81.5000 197° South 142 163 1,200 247 Climbing Jacksonville Center
Sun 05:19:02 PM 30.5781 -81.4833 152° Southeast 103 119 1,500 414 Climbing Jacksonville Center
Sun 05:19:57 PM 30.5511 -81.4861 185° South 108 124 2,000 569 Climbing Jacksonville Center
Sun 05:20:58 PM 30.5239 -81.4867 181° South 98 113 2,600 569 Climbing Jacksonville Center
Sun 05:21:53 PM 30.4969 -81.4894 185° South 93 107 3,100 492 Climbing Jacksonville Center
Sun 05:23:00 PM 30.4717 -81.4897 181° South 90 104 3,600 403 Climbing Jacksonville Center
Sun 05:24:07 PM 30.4617 -81.5286 253° West 119 137 4,000 148 Climbing Jacksonville Center
Sun 05:25:02 PM 30.4517 -81.5647 252° West 131 151 3,900  Descending Jacksonville Center
Sun 05:26:09 PM 30.4375 -81.6083 249° West 134 154 4,000 45 Climbing Jacksonville Center
Sun 05:27:16 PM 30.4253 -81.6494 251° West 129 148 4,000  Level Jacksonville Center
Sun 05:28:17 PM 30.4111 -81.6931 249° West 131 151 4,000  Level Jacksonville Center
Sun 05:29:18 PM 30.4033 -81.7342 258° West 132 152 4,000  Level Jacksonville Center
Sun 05:30:12 PM 30.3911 -81.7681 247° West 134 154 4,000  Level Jacksonville Center
Sun 05:31:13 PM 30.3789 -81.8114 252° West 131 151 4,000 -52 Level Jacksonville Center
Sun 05:32:08 PM 30.3728 -81.8453 258° West 131 151 3,900 -47 Descending Jacksonville Center
Sun 05:33:21 PM 30.3567 -81.8958 250° West 135 155 3,900  Level Jacksonville Center
Sun 05:34:22 PM 30.3444 -81.9369 251° West 135 155 3,900  Level Jacksonville Center
Sun 05:35:17 PM 30.3364 -81.9731 256° West 135 155 3,900 -103 Level Jacksonville Center
Sun 05:36:18 PM 30.3242 -82.0142 251° West 128 147 3,700 -393 Descending Jacksonville Center
Sun 05:37:19 PM 30.3097 -82.0553 248° West 147 169 3,100 -344 Descending Jacksonville Center
Sun 05:38:20 PM 30.2975 -82.1033 254° West 155 178 3,000 -310 Descending Jacksonville Center
Sun 05:39:15 PM 30.2725 -82.1133 199° South 123 142 2,500 -522 Descending Jacksonville Center
Sun 05:40:15 PM 30.2392 -82.1136 180° South 131 151 2,000 -331 Descending Jacksonville Center
Sun 05:41:22 PM 30.2203 -82.0897 132° Southeast 91 105 1,800 -90 Descending Jacksonville Center
Sun 05:42:29 PM 30.2136 -82.0608 105° East 71 82 1,800  Level Jacksonville Center
Sun 05:43:30 PM 30.2114 -82.0344 96° East 85 98 1,800  Level Jacksonville Center
Sun 05:44:19 PM 30.2114 -82.0153 90° East 79 91 1,800  Level Jacksonville Center
Sun 05:45:20 PM 30.2133 -81.9889 85° East 76 87 1,800 -179 Level Jacksonville Center
Sun 05:46:33 PM 30.2108 -81.9600 96° East 80 92 1,400 -295 Descending Jacksonville Center
Sun 05:47:22 PM 30.2108 -81.9358 90° East 87 100 1,200 -404 Descending Jacksonville Center
Sun 05:48:17 PM 30.2128 -81.9142 84° East 85 98 700 -545 Descending Jacksonville Center
Sun 05:50:00 PM 30.2188 -81.8772 108° East  Level Estimated

Login

Don't have an account? Register now (free) for customized features, flight alerts, and more!